createdAt,value
2018-02-22T00:01:01.724Z,72.32
2018-02-22T00:03:29.432Z,72.39
2018-02-22T00:05:56.951Z,72.06
2018-02-22T00:08:24.456Z,72.01
2018-02-22T00:10:52.003Z,72.08
2018-02-22T00:13:19.567Z,71.46
2018-02-22T00:15:47.083Z,70.82
2018-02-22T00:18:14.580Z,70.95
2018-02-22T00:20:42.138Z,70.87
2018-02-22T00:23:09.699Z,70.73
2018-02-22T00:25:37.259Z,70.90
2018-02-22T00:28:04.755Z,70.24
2018-02-22T00:30:32.282Z,70.13
2018-02-22T00:32:59.776Z,69.96
2018-02-22T00:35:27.296Z,70.53
2018-02-22T00:37:54.859Z,70.90
2018-02-22T00:40:22.376Z,70.89
2018-02-22T00:42:49.982Z,70.95
2018-02-22T00:45:17.499Z,71.07
2018-02-22T00:47:45.006Z,70.94
2018-02-22T00:50:12.531Z,69.83
2018-02-22T00:52:40.027Z,69.08
2018-02-22T00:55:07.543Z,69.05
2018-02-22T00:57:36.052Z,68.35
2018-02-22T01:00:03.611Z,67.70
2018-02-22T01:02:31.102Z,67.29
2018-02-22T01:04:58.728Z,66.85
2018-02-22T01:07:26.214Z,66.45
2018-02-22T01:09:53.739Z,66.38
2018-02-22T01:12:21.314Z,65.97
2018-02-22T01:14:48.827Z,66.37
2018-02-22T01:17:16.323Z,66.68
2018-02-22T01:19:43.857Z,67.02
2018-02-22T01:22:11.461Z,66.54
2018-02-22T01:24:38.980Z,66.63
2018-02-22T01:27:06.588Z,66.84
2018-02-22T01:29:34.128Z,66.79
2018-02-22T01:32:01.619Z,67.14
2018-02-22T01:34:29.163Z,67.14
2018-02-22T01:36:56.660Z,67.40
2018-02-22T01:39:24.168Z,66.98
2018-02-22T01:41:51.683Z,66.75
2018-02-22T01:44:19.179Z,67.72
2018-02-22T01:46:46.709Z,67.68
2018-02-22T01:49:14.216Z,68.29
2018-02-22T01:51:41.851Z,68.53
2018-02-22T01:54:09.343Z,68.92
2018-02-22T01:56:36.862Z,69.35
2018-02-22T01:59:04.403Z,70.18
2018-02-22T02:01:31.938Z,70.63
2018-02-22T02:03:59.432Z,71.16
2018-02-22T02:06:26.964Z,70.71
2018-02-22T02:08:54.472Z,70.92
2018-02-22T02:11:21.995Z,70.57
2018-02-22T02:13:49.491Z,70.78
2018-02-22T02:16:17.007Z,70.57
2018-02-22T02:18:44.667Z,70.66
2018-02-22T02:21:12.280Z,70.50
2018-02-22T02:23:39.778Z,70.89
2018-02-22T02:26:07.505Z,71.31
2018-02-22T02:28:35.015Z,71.50
2018-02-22T02:31:02.532Z,72.63
2018-02-22T02:33:30.036Z,72.62
2018-02-22T02:35:57.555Z,72.56
2018-02-22T02:38:25.080Z,72.45
2018-02-22T02:40:52.856Z,72.40
2018-02-22T02:43:20.348Z,73.17
2018-02-22T02:45:47.877Z,73.18
2018-02-22T02:48:15.424Z,73.48
2018-02-22T02:50:43.086Z,73.15
2018-02-22T02:53:10.589Z,72.67
2018-02-22T02:55:38.125Z,73.05
2018-02-22T02:58:05.623Z,72.71
2018-02-22T03:00:33.158Z,72.59
2018-02-22T03:03:00.657Z,72.67
2018-02-22T03:05:28.155Z,72.13
2018-02-22T03:07:55.667Z,71.72
2018-02-22T03:10:23.284Z,71.87
2018-02-22T03:12:50.811Z,71.56
2018-02-22T03:15:18.372Z,71.48
2018-02-22T03:17:45.939Z,72.06
2018-02-22T03:20:13.498Z,72.06
2018-02-22T03:22:41.035Z,72.42
2018-02-22T03:25:08.537Z,72.42
2018-02-22T03:27:36.099Z,72.37
2018-02-22T03:30:03.600Z,72.86
2018-02-22T03:32:31.192Z,73.83
2018-02-22T03:34:58.683Z,73.68
2018-02-22T03:37:26.224Z,73.37
2018-02-22T03:39:53.719Z,73.57
2018-02-22T03:42:21.251Z,73.22
2018-02-22T03:44:48.756Z,72.72
2018-02-22T03:47:16.299Z,72.72
2018-02-22T03:49:43.787Z,72.36
2018-02-22T03:52:11.484Z,72.99
2018-02-22T03:54:39.004Z,71.97
2018-02-22T03:57:06.534Z,72.10
2018-02-22T03:59:34.031Z,72.69
2018-02-22T04:02:01.603Z,72.73
2018-02-22T04:04:29.160Z,72.95
2018-02-22T04:06:56.719Z,73.36
2018-02-22T04:09:24.296Z,72.69
2018-02-22T04:11:51.815Z,72.90
2018-02-22T04:14:19.311Z,72.77
2018-02-22T04:16:46.860Z,72.81
2018-02-22T04:19:14.367Z,73.11
2018-02-22T04:21:41.883Z,72.67
2018-02-22T04:24:09.434Z,73.02
2018-02-22T04:26:36.948Z,73.12
2018-02-22T04:29:04.469Z,73.22
2018-02-22T04:31:32.006Z,73.42
2018-02-22T04:33:59.516Z,73.95
2018-02-22T04:36:27.027Z,73.50
2018-02-22T04:38:54.519Z,73.65
2018-02-22T04:41:22.035Z,73.15
2018-02-22T04:43:49.576Z,73.06
2018-02-22T04:46:17.112Z,73.00
2018-02-22T04:48:44.632Z,73.17
2018-02-22T04:51:12.202Z,72.74
2018-02-22T04:53:39.728Z,72.84
2018-02-22T04:56:07.286Z,72.91
2018-02-22T04:58:34.864Z,72.86
2018-02-22T05:01:02.425Z,73.10
2018-02-22T05:03:29.955Z,72.63
2018-02-22T05:05:57.616Z,72.58
2018-02-22T05:08:25.135Z,72.82
2018-02-22T05:10:52.648Z,72.78
2018-02-22T05:13:20.193Z,72.76
2018-02-22T05:15:47.711Z,73.01
2018-02-22T05:18:15.243Z,73.62
2018-02-22T05:20:42.799Z,73.65
2018-02-22T05:23:10.323Z,73.39
2018-02-22T05:25:37.952Z,74.05
2018-02-22T05:28:05.471Z,74.23
2018-02-22T05:30:33.040Z,74.16
2018-02-22T05:33:00.599Z,73.52
2018-02-22T05:35:28.087Z,73.51
2018-02-22T05:37:55.615Z,73.44
2018-02-22T05:40:23.181Z,73.22
2018-02-22T05:42:50.715Z,74.21
2018-02-22T05:45:18.228Z,73.72
2018-02-22T05:47:45.751Z,73.47
2018-02-22T05:50:13.257Z,73.40
2018-02-22T05:52:40.772Z,73.58
2018-02-22T05:55:08.336Z,73.62
2018-02-22T05:57:35.889Z,73.60
2018-02-22T06:00:03.404Z,74.05
2018-02-22T06:02:30.966Z,73.83
2018-02-22T06:04:58.456Z,73.70
2018-02-22T06:07:25.995Z,73.60
2018-02-22T06:09:53.492Z,73.29
2018-02-22T06:12:21.040Z,73.13
2018-02-22T06:14:48.612Z,73.16
2018-02-22T06:17:16.167Z,73.24
2018-02-22T06:19:43.732Z,73.22
2018-02-22T06:22:11.236Z,73.25
2018-02-22T06:24:38.836Z,73.29
2018-02-22T06:27:06.344Z,73.45
2018-02-22T06:29:33.863Z,73.81
2018-02-22T06:32:01.415Z,73.24
2018-02-22T06:34:28.931Z,72.94
2018-02-22T06:36:56.547Z,73.07
2018-02-22T06:39:24.112Z,72.89
2018-02-22T06:41:51.612Z,72.76
2018-02-22T06:44:19.143Z,72.86
2018-02-22T06:46:46.672Z,72.93
2018-02-22T06:49:14.192Z,72.81
2018-02-22T06:51:41.691Z,72.31
2018-02-22T06:54:09.252Z,72.47
2018-02-22T06:56:36.768Z,71.83
2018-02-22T06:59:04.291Z,71.43
2018-02-22T07:01:31.837Z,71.11
2018-02-22T07:03:59.351Z,70.74
2018-02-22T07:06:26.957Z,70.30
2018-02-22T07:08:54.475Z,70.44
2018-02-22T07:11:22.036Z,70.28
2018-02-22T07:13:49.567Z,70.00
2018-02-22T07:16:17.087Z,69.58
2018-02-22T07:18:44.604Z,69.20
2018-02-22T07:21:12.119Z,70.14
2018-02-22T07:23:39.632Z,69.48
2018-02-22T07:26:07.130Z,69.60
2018-02-22T07:28:34.648Z,69.43
2018-02-22T07:31:02.160Z,68.49
2018-02-22T07:33:29.686Z,68.94
2018-02-22T07:35:57.171Z,68.49
2018-02-22T07:38:24.730Z,68.63
2018-02-22T07:40:52.272Z,68.21
2018-02-22T07:43:19.833Z,68.29
2018-02-22T07:45:47.451Z,67.90
2018-02-22T07:48:15.023Z,68.16
2018-02-22T07:50:42.539Z,68.50
2018-02-22T07:53:10.067Z,67.81
2018-02-22T07:55:37.592Z,67.20
2018-02-22T07:58:05.188Z,66.94
2018-02-22T08:00:32.727Z,66.70
2018-02-22T08:03:00.224Z,66.31
2018-02-22T08:05:27.764Z,66.62
2018-02-22T08:07:55.328Z,67.18
2018-02-22T08:10:22.855Z,66.40
2018-02-22T08:12:50.485Z,65.80
2018-02-22T08:15:18.011Z,66.11
2018-02-22T08:17:45.566Z,66.16
2018-02-22T08:20:13.136Z,66.61
2018-02-22T08:22:40.636Z,66.45
2018-02-22T08:25:08.152Z,66.01
2018-02-22T08:27:36.607Z,66.23
2018-02-22T08:30:04.126Z,65.05
2018-02-22T08:32:31.628Z,65.05
2018-02-22T08:34:59.149Z,65.23
2018-02-22T08:37:26.644Z,65.46
2018-02-22T08:39:54.160Z,65.15
2018-02-22T08:42:21.704Z,65.47
2018-02-22T08:44:49.263Z,64.99
2018-02-22T08:47:16.859Z,64.87
2018-02-22T08:49:44.371Z,64.95
2018-02-22T08:52:11.882Z,64.88
2018-02-22T08:54:39.488Z,64.51
2018-02-22T08:57:07.029Z,63.81
2018-02-22T08:59:34.546Z,64.43
2018-02-22T09:02:02.151Z,63.06
2018-02-22T09:04:29.668Z,63.61
2018-02-22T09:06:57.285Z,63.29
2018-02-22T09:09:24.950Z,63.39
2018-02-22T09:11:52.444Z,63.51
2018-02-22T09:14:19.967Z,63.09
2018-02-22T09:16:47.463Z,63.54
2018-02-22T09:19:14.980Z,63.80
2018-02-22T09:21:42.565Z,63.03
2018-02-22T09:24:10.158Z,62.99
2018-02-22T09:26:37.743Z,62.84
2018-02-22T09:29:05.317Z,61.72
2018-02-22T09:31:32.836Z,62.20
2018-02-22T09:34:00.346Z,62.02
2018-02-22T09:36:27.901Z,61.77
2018-02-22T09:38:55.430Z,61.76
2018-02-22T09:41:22.955Z,61.57
2018-02-22T09:43:50.481Z,61.22
2018-02-22T09:46:18.024Z,60.85
2018-02-22T09:48:45.525Z,61.15
2018-02-22T09:51:13.055Z,60.93
2018-02-22T09:53:40.546Z,60.74
2018-02-22T09:56:08.059Z,60.40
2018-02-22T09:58:35.620Z,60.55
2018-02-22T10:01:03.176Z,60.88
2018-02-22T10:03:30.672Z,60.72
2018-02-22T10:05:58.184Z,61.02
2018-02-22T10:08:25.732Z,60.76
2018-02-22T10:10:53.276Z,60.41
2018-02-22T10:13:20.780Z,59.43
2018-02-22T10:15:48.336Z,58.72
2018-02-22T10:18:15.834Z,58.37
2018-02-22T10:20:43.604Z,58.78
2018-02-22T10:23:11.099Z,59.00
2018-02-22T10:25:38.671Z,58.79
2018-02-22T10:28:07.175Z,58.44
2018-02-22T10:30:34.831Z,58.87
2018-02-22T10:33:02.364Z,58.84
2018-02-22T10:35:29.919Z,57.94
2018-02-22T10:37:57.428Z,58.32
2018-02-22T10:40:24.988Z,58.08
2018-02-22T10:42:52.512Z,58.21
2018-02-22T10:45:20.028Z,58.18
2018-02-22T10:47:47.535Z,57.36
2018-02-22T10:50:15.048Z,57.68
2018-02-22T10:52:42.546Z,57.99
2018-02-22T10:55:11.024Z,56.97
2018-02-22T10:57:38.536Z,56.32
2018-02-22T11:00:06.056Z,56.97
2018-02-22T11:02:39.164Z,56.80
2018-02-22T11:05:06.676Z,56.50
2018-02-22T11:07:34.196Z,56.43
2018-02-22T11:10:01.684Z,56.39
2018-02-22T11:12:29.213Z,55.21
2018-02-22T11:14:56.710Z,54.93
2018-02-22T11:17:24.258Z,55.48
2018-02-22T11:19:51.925Z,55.76
2018-02-22T11:22:19.442Z,55.29
2018-02-22T11:24:47.855Z,55.29
2018-02-22T11:27:15.363Z,55.94
2018-02-22T11:29:42.859Z,54.89
2018-02-22T11:32:10.364Z,55.61
2018-02-22T11:34:37.870Z,55.13
2018-02-22T11:37:05.384Z,55.68
2018-02-22T11:39:32.940Z,55.30
2018-02-22T11:42:00.454Z,54.93
2018-02-22T11:44:27.973Z,54.59
2018-02-22T11:46:55.529Z,54.94
2018-02-22T11:49:23.076Z,54.93
2018-02-22T11:51:50.629Z,53.87
2018-02-22T11:54:18.112Z,53.72
2018-02-22T11:56:45.652Z,53.72
2018-02-22T11:59:13.152Z,53.38
2018-02-22T12:01:40.664Z,53.02
2018-02-22T12:04:08.238Z,52.99
2018-02-22T12:06:35.753Z,52.19
2018-02-22T12:09:03.247Z,52.26
2018-02-22T12:11:30.771Z,51.40
2018-02-22T12:13:58.360Z,51.43
2018-02-22T12:16:25.879Z,52.20
2018-02-22T12:18:53.371Z,51.83
2018-02-22T12:21:20.968Z,51.46
2018-02-22T12:23:48.499Z,52.41
2018-02-22T12:26:16.064Z,52.27
2018-02-22T12:28:43.561Z,52.33
2018-02-22T12:31:11.079Z,52.33
2018-02-22T12:33:38.635Z,52.18
2018-02-22T12:36:06.152Z,52.58
2018-02-22T12:38:33.639Z,53.80
2018-02-22T12:41:01.145Z,53.44
2018-02-22T12:43:28.695Z,52.38
2018-02-22T12:45:56.232Z,51.94
2018-02-22T12:48:23.776Z,52.02
2018-02-22T12:50:51.295Z,52.29
2018-02-22T12:53:18.868Z,51.78
2018-02-22T12:55:46.376Z,51.14
2018-02-22T12:58:13.887Z,51.58
2018-02-22T13:00:41.423Z,51.71
2018-02-22T13:03:08.931Z,52.16
2018-02-22T13:05:36.453Z,52.65
2018-02-22T13:08:04.235Z,52.05
2018-02-22T13:10:31.728Z,51.81
2018-02-22T13:12:59.252Z,51.69
2018-02-22T13:15:26.747Z,51.41
2018-02-22T13:17:54.299Z,52.01
2018-02-22T13:20:21.804Z,51.34
2018-02-22T13:22:49.319Z,51.10
2018-02-22T13:25:16.817Z,51.42
2018-02-22T13:27:44.333Z,51.05
2018-02-22T13:30:11.845Z,51.82
2018-02-22T13:32:51.245Z,51.44
2018-02-22T13:35:18.794Z,51.57
2018-02-22T13:40:48.935Z,51.66
2018-02-22T13:43:16.450Z,51.37
2018-02-22T13:45:43.941Z,50.69
2018-02-22T13:48:11.515Z,50.28
2018-02-22T13:50:50.848Z,50.77
2018-02-22T13:53:18.363Z,50.46
2018-02-22T13:55:45.871Z,50.41
2018-02-22T13:58:13.387Z,50.74
2018-02-22T14:00:52.759Z,50.32
2018-02-22T14:03:20.282Z,50.67
2018-02-22T14:05:47.774Z,51.15
2018-02-22T14:08:27.320Z,50.67
2018-02-22T14:10:54.893Z,50.90
2018-02-22T14:13:22.424Z,50.59
2018-02-22T14:15:49.911Z,50.85
2018-02-22T14:18:17.440Z,50.79
2018-02-22T14:20:45.545Z,51.20
2018-02-22T14:23:13.135Z,50.80
2018-02-22T14:25:40.619Z,50.82
2018-02-22T14:28:08.142Z,50.71
2018-02-22T14:30:35.638Z,50.80
2018-02-22T14:33:03.147Z,51.06
2018-02-22T14:35:30.680Z,51.00
2018-02-22T14:37:58.191Z,51.07
2018-02-22T14:40:25.692Z,50.76
2018-02-22T14:42:53.212Z,50.50
2018-02-22T14:45:20.708Z,51.21
2018-02-22T14:47:48.560Z,50.77
2018-02-22T14:50:16.052Z,51.83
2018-02-22T14:52:43.592Z,51.38
2018-02-22T14:55:11.155Z,51.34
2018-02-22T14:57:38.711Z,51.49
2018-02-22T15:00:06.200Z,50.81
2018-02-22T15:02:33.836Z,51.16
2018-02-22T15:05:01.396Z,51.47
2018-02-22T15:07:28.920Z,51.16
2018-02-22T15:09:56.416Z,51.66
2018-02-22T15:12:23.936Z,52.04
2018-02-22T15:14:51.464Z,52.36
2018-02-22T15:17:18.959Z,52.40
2018-02-22T15:19:46.508Z,51.79
2018-02-22T15:22:14.013Z,52.11
2018-02-22T15:24:41.523Z,52.08
2018-02-22T15:27:09.029Z,52.48
2018-02-22T15:29:36.543Z,51.95
2018-02-22T15:32:04.151Z,52.50
2018-02-22T15:34:31.663Z,52.63
2018-02-22T15:36:59.156Z,52.61
2018-02-22T15:39:26.673Z,52.66
2018-02-22T15:41:54.164Z,53.17
2018-02-22T15:44:21.743Z,53.50
2018-02-22T15:46:50.208Z,53.08
2018-02-22T15:49:17.726Z,52.40
2018-02-22T15:51:45.211Z,52.84
2018-02-22T15:54:12.815Z,52.85
2018-02-22T15:56:40.308Z,52.63
2018-02-22T15:59:07.828Z,52.73
2018-02-22T16:01:36.598Z,53.20
2018-02-22T16:04:04.108Z,53.28
2018-02-22T16:06:31.596Z,53.07
2018-02-22T16:08:59.184Z,53.42
2018-02-22T16:11:26.679Z,53.24
2018-02-22T16:13:54.195Z,53.34
2018-02-22T16:16:21.752Z,52.87
2018-02-22T16:18:49.299Z,52.70
2018-02-22T16:21:16.857Z,53.50
2018-02-22T16:23:44.380Z,53.48
2018-02-22T16:26:11.872Z,53.03
2018-02-22T16:28:39.395Z,52.85
2018-02-22T16:31:06.915Z,53.23
2018-02-22T16:33:34.424Z,53.09
2018-02-22T16:36:01.941Z,53.11
2018-02-22T16:38:29.460Z,52.78
2018-02-22T16:40:57.052Z,53.08
2018-02-22T16:43:24.584Z,52.90
2018-02-22T16:45:52.077Z,53.00
2018-02-22T16:48:19.610Z,53.32
2018-02-22T16:50:47.125Z,53.05
2018-02-22T16:53:14.619Z,53.05
2018-02-22T16:55:42.207Z,53.28
2018-02-22T16:58:09.703Z,53.07
2018-02-22T17:00:37.219Z,53.77
2018-02-22T17:03:04.752Z,53.56
2018-02-22T17:05:32.284Z,53.79
2018-02-22T17:08:00.788Z,53.33
2018-02-22T17:10:28.319Z,53.02
2018-02-22T17:12:55.819Z,53.50
2018-02-22T17:15:23.404Z,53.04
2018-02-22T17:17:50.961Z,52.94
2018-02-22T17:20:18.483Z,52.93
2018-02-22T17:22:45.998Z,53.23
2018-02-22T17:25:13.524Z,53.60
2018-02-22T17:27:46.600Z,53.72
2018-02-22T17:30:19.817Z,53.25
2018-02-22T17:32:47.307Z,53.21
2018-02-22T17:35:16.635Z,52.71
2018-02-22T17:37:44.124Z,52.91
2018-02-22T17:43:15.500Z,53.17
2018-02-22T17:45:43.120Z,53.06
2018-02-22T17:48:10.617Z,53.42
2018-02-22T17:50:38.155Z,53.20
2018-02-22T17:53:05.672Z,53.08
2018-02-22T17:55:33.240Z,52.61
2018-02-22T17:58:00.735Z,52.97
2018-02-22T18:00:28.248Z,52.83
2018-02-22T18:02:55.760Z,53.36
2018-02-22T18:05:23.292Z,52.79
2018-02-22T18:07:50.796Z,53.03
2018-02-22T18:10:18.358Z,52.78
2018-02-22T18:12:45.877Z,52.91
2018-02-22T18:15:13.452Z,53.07
2018-02-22T18:17:40.976Z,52.89
2018-02-22T18:20:08.505Z,52.92
2018-02-22T18:22:36.000Z,53.49
2018-02-22T18:25:03.537Z,53.19
2018-02-22T18:27:31.040Z,53.29
2018-02-22T18:29:58.648Z,52.75
2018-02-22T18:32:26.137Z,53.10
2018-02-22T18:34:53.750Z,52.87
2018-02-22T18:37:26.887Z,52.33
2018-02-22T18:39:54.399Z,52.64
2018-02-22T18:42:21.924Z,52.90
2018-02-22T18:44:55.084Z,52.57
2018-02-22T18:47:22.590Z,52.84
2018-02-22T18:49:50.099Z,52.87
2018-02-22T18:52:17.626Z,53.36
2018-02-22T18:54:45.211Z,53.11
2018-02-22T18:57:12.711Z,53.35
2018-02-22T18:59:40.203Z,52.86
2018-02-22T19:02:07.711Z,52.98
2018-02-22T19:04:35.198Z,52.98
2018-02-22T19:07:02.772Z,52.91
2018-02-22T19:09:30.331Z,53.59
2018-02-22T19:11:57.923Z,52.70
2018-02-22T19:14:25.375Z,53.36
2018-02-22T19:16:53.017Z,52.61
2018-02-22T19:19:20.503Z,52.74
2018-02-22T19:21:48.044Z,52.71
2018-02-22T19:24:15.588Z,52.46
2018-02-22T19:26:43.252Z,52.78
2018-02-22T19:29:11.702Z,52.55
2018-02-22T19:31:39.284Z,52.72
2018-02-22T19:34:06.771Z,52.95
2018-02-22T19:36:34.306Z,53.12
2018-02-22T19:39:01.799Z,53.48
2018-02-22T19:41:29.323Z,52.40
2018-02-22T19:43:56.887Z,52.88
2018-02-22T19:46:24.403Z,52.53
2018-02-22T19:48:52.010Z,52.84
2018-02-22T19:51:20.479Z,53.06
2018-02-22T19:53:48.050Z,53.25
2018-02-22T19:56:15.620Z,52.48
2018-02-22T19:58:43.116Z,52.42
2018-02-22T20:01:10.636Z,51.99
2018-02-22T20:03:38.132Z,52.05
2018-02-22T20:06:05.643Z,52.29
2018-02-22T20:08:33.207Z,52.38
2018-02-22T20:11:00.723Z,53.07
2018-02-22T20:13:29.216Z,52.61
2018-02-22T20:15:56.816Z,52.24
2018-02-22T20:18:24.303Z,52.75
2018-02-22T20:20:51.824Z,52.68
2018-02-22T20:23:19.380Z,52.26
2018-02-22T20:25:46.887Z,52.37
2018-02-22T20:28:14.382Z,52.68
2018-02-22T20:30:41.920Z,52.39
2018-02-22T20:33:09.516Z,52.67
2018-02-22T20:35:37.079Z,52.58
2018-02-22T20:38:04.605Z,52.26
2018-02-22T20:40:32.092Z,52.51
2018-02-22T20:42:59.603Z,52.83
2018-02-22T20:45:27.091Z,52.79
2018-02-22T20:47:54.628Z,52.35
2018-02-22T20:50:22.143Z,52.36
2018-02-22T20:52:53.620Z,52.32
2018-02-22T20:55:22.965Z,52.99
2018-02-22T20:57:50.483Z,52.76
2018-02-22T21:00:17.973Z,51.88
2018-02-22T21:02:45.504Z,52.41
2018-02-22T21:05:13.031Z,52.06
2018-02-22T21:07:40.544Z,51.94
2018-02-22T21:10:08.066Z,52.16
2018-02-22T21:12:35.580Z,52.32
2018-02-22T21:15:03.071Z,52.24
2018-02-22T21:17:30.584Z,51.78
2018-02-22T21:19:58.072Z,51.59
2018-02-22T21:22:25.604Z,51.95
2018-02-22T21:24:53.091Z,51.75
2018-02-22T21:27:20.636Z,51.68
2018-02-22T21:29:48.208Z,52.45
2018-02-22T21:32:15.723Z,52.29
2018-02-22T21:34:43.330Z,51.88
2018-02-22T21:37:10.847Z,51.87
2018-02-22T21:39:38.336Z,52.03
2018-02-22T21:42:05.996Z,52.00
2018-02-22T21:44:33.520Z,52.23
2018-02-22T21:47:01.031Z,51.94
2018-02-22T21:49:28.581Z,51.61
2018-02-22T21:51:56.103Z,51.82
2018-02-22T21:54:23.587Z,51.99
2018-02-22T21:56:51.163Z,52.23
2018-02-22T21:59:18.660Z,52.23
2018-02-22T22:01:46.171Z,51.57
2018-02-22T22:04:13.664Z,51.66
2018-02-22T22:06:41.196Z,51.57
2018-02-22T22:09:08.685Z,51.37
2018-02-22T22:11:36.176Z,51.72
2018-02-22T22:14:03.775Z,51.60
2018-02-22T22:16:31.301Z,51.71
2018-02-22T22:18:58.903Z,51.74
2018-02-22T22:21:26.400Z,51.96
2018-02-22T22:23:53.916Z,52.34
2018-02-22T22:26:21.416Z,51.96
2018-02-22T22:28:48.980Z,52.17
2018-02-22T22:31:16.479Z,52.35
2018-02-22T22:33:43.988Z,52.31
2018-02-22T22:36:11.495Z,52.99
2018-02-22T22:38:39.075Z,52.54
2018-02-22T22:41:06.564Z,52.86
2018-02-22T22:43:34.185Z,53.15
2018-02-22T22:46:01.701Z,52.82
2018-02-22T22:48:29.215Z,52.90
2018-02-22T22:50:56.728Z,53.15
2018-02-22T22:53:24.308Z,52.71
2018-02-22T22:55:51.877Z,53.11
2018-02-22T22:58:19.483Z,52.98
2018-02-22T23:00:46.969Z,52.90
2018-02-22T23:03:14.554Z,53.30
2018-02-22T23:05:42.108Z,53.12
2018-02-22T23:08:09.620Z,53.84
2018-02-22T23:10:37.112Z,53.59
2018-02-22T23:13:04.624Z,53.91
2018-02-22T23:15:32.111Z,53.54
2018-02-22T23:17:59.631Z,53.43
2018-02-22T23:20:27.139Z,53.56
2018-02-22T23:22:54.692Z,53.46
2018-02-22T23:25:23.207Z,53.77
2018-02-22T23:27:50.729Z,53.87
2018-02-22T23:30:18.323Z,53.96
2018-02-22T23:32:45.838Z,54.35
2018-02-22T23:35:13.348Z,54.11
2018-02-22T23:37:40.912Z,54.02
2018-02-22T23:40:15.023Z,54.49
2018-02-22T23:42:43.504Z,54.16
2018-02-22T23:45:11.059Z,54.85
2018-02-22T23:47:38.622Z,54.77
2018-02-22T23:50:06.115Z,54.80
2018-02-22T23:52:33.640Z,54.75
2018-02-22T23:55:01.165Z,54.69
2018-02-22T23:57:28.756Z,55.10
2018-02-22T23:59:56.272Z,54.93
